Time;durP1;ratioP1;P1;durP2;ratioP2;P2;SDS_P1;SDS_P2;PMS_P1;PMS_P2;Temp;Humidity;BMP_temperature;BMP_pressure;BME280_temperature;BME280_humidity;BME280_pressure;Samples;Min_cycle;Max_cycle;Signal;HPM_P1;HPM_P2
2024/02/02 00:01:07;;;;;;;27.45;4.97;;;6.30;99.90;;;;;;5032685;28;20017;-79
2024/02/02 00:03:32;;;;;;;21.95;5.07;;;6.30;99.90;;;;;;5032493;28;20475;-78
2024/02/02 00:05:58;;;;;;;22.10;5.32;;;6.30;99.90;;;;;;5033006;28;20072;-78
2024/02/02 00:08:24;;;;;;;20.38;5.50;;;6.30;99.90;;;;;;5032325;28;20025;-77
2024/02/02 00:10:50;;;;;;;21.42;5.47;;;6.30;99.90;;;;;;5014778;28;20039;-78
2024/02/02 00:13:15;;;;;;;21.27;4.90;;;6.30;99.90;;;;;;5032152;28;20079;-79
2024/02/02 00:15:44;;;;;;;19.13;4.68;;;6.30;99.90;;;;;;5032476;28;20029;-78
2024/02/02 00:18:10;;;;;;;21.42;4.95;;;6.30;99.90;;;;;;5032463;28;20075;-78
2024/02/02 00:20:39;;;;;;;23.73;4.90;;;6.30;99.90;;;;;;5032665;28;20116;-78
2024/02/02 00:23:05;;;;;;;18.83;4.95;;;6.30;99.90;;;;;;5032760;28;20028;-78
2024/02/02 00:25:31;;;;;;;25.80;5.00;;;6.30;99.90;;;;;;5032581;28;20034;-78
2024/02/02 00:27:57;;;;;;;21.17;5.35;;;6.30;99.90;;;;;;5032063;28;20025;-78
2024/02/02 00:30:23;;;;;;;22.73;5.20;;;6.30;99.90;;;;;;5032236;28;20032;-78
2024/02/02 00:32:48;;;;;;;29.25;6.10;;;6.40;99.90;;;;;;5031514;28;20028;-77
2024/02/02 00:35:17;;;;;;;26.92;6.03;;;6.40;99.90;;;;;;5038187;28;20022;-78
2024/02/02 00:37:44;;;;;;;24.75;7.45;;;6.30;99.90;;;;;;5031663;28;20028;-77
2024/02/02 00:40:10;;;;;;;23.02;5.65;;;6.30;99.90;;;;;;5014469;28;20479;-78
2024/02/02 00:42:39;;;;;;;26.73;6.68;;;6.30;99.90;;;;;;5031698;28;20044;-77
2024/02/02 00:45:05;;;;;;;29.38;6.93;;;6.30;99.90;;;;;;5031738;28;20033;-78
2024/02/02 00:47:31;;;;;;;28.80;5.72;;;6.30;99.90;;;;;;5013155;28;20585;-77
2024/02/02 00:49:58;;;;;;;19.27;6.63;;;6.30;99.90;;;;;;5032340;28;20048;-78
2024/02/02 00:52:27;;;;;;;27.00;5.40;;;6.30;99.90;;;;;;5032146;28;20034;-78
2024/02/02 00:54:54;;;;;;;21.40;5.20;;;6.40;99.90;;;;;;5031558;28;20018;-78
2024/02/02 00:57:19;;;;;;;28.83;5.82;;;6.40;99.90;;;;;;5032033;28;20025;-77
2024/02/02 00:59:50;;;;;;;26.27;5.75;;;6.40;99.90;;;;;;5031515;28;20021;-77
2024/02/02 01:02:18;;;;;;;21.33;5.70;;;6.40;99.90;;;;;;5031461;28;20121;-77
2024/02/02 01:04:44;;;;;;;20.95;5.80;;;6.40;99.90;;;;;;5013750;28;20544;-80
2024/02/02 01:07:10;;;;;;;19.10;5.53;;;6.40;99.90;;;;;;5031564;28;20029;-77
2024/02/02 01:09:39;;;;;;;26.00;5.82;;;6.40;99.90;;;;;;5031399;28;20467;-77
2024/02/02 01:12:04;;;;;;;22.25;5.78;;;6.40;99.90;;;;;;5031591;28;20343;-77
2024/02/02 01:14:33;;;;;;;24.98;5.32;;;6.40;99.90;;;;;;5031158;28;20680;-77
2024/02/02 01:16:58;;;;;;;23.33;5.55;;;6.40;99.90;;;;;;5013601;28;20637;-78
2024/02/02 01:19:24;;;;;;;20.48;6.25;;;6.40;99.90;;;;;;5013381;28;20029;-78
2024/02/02 01:21:52;;;;;;;22.10;5.00;;;6.50;99.90;;;;;;5031436;28;20471;-78
2024/02/02 01:24:18;;;;;;;23.40;5.32;;;6.40;99.90;;;;;;5031110;28;20581;-79
2024/02/02 01:26:44;;;;;;;28.88;7.22;;;6.40;99.90;;;;;;5031378;28;20113;-77
2024/02/02 01:29:10;;;;;;;23.23;6.57;;;6.50;99.90;;;;;;5031012;28;20090;-78
2024/02/02 01:31:38;;;;;;;25.67;5.60;;;6.40;99.90;;;;;;5031207;28;20025;-77
2024/02/02 01:34:04;;;;;;;22.70;5.40;;;6.40;99.90;;;;;;5031100;28;20136;-77
2024/02/02 01:36:30;;;;;;;19.85;5.00;;;6.40;99.90;;;;;;5013624;28;20117;-77
2024/02/02 01:38:56;;;;;;;22.08;6.07;;;6.50;99.90;;;;;;5031808;28;20032;-78
2024/02/02 01:41:21;;;;;;;28.40;5.90;;;6.50;99.90;;;;;;5031991;28;20013;-77
2024/02/02 01:43:47;;;;;;;23.52;5.30;;;6.50;99.90;;;;;;5032842;28;20368;-77
2024/02/02 01:46:16;;;;;;;26.30;6.03;;;6.50;99.90;;;;;;5035509;28;20030;-77
2024/02/02 01:48:52;;;;;;;22.05;5.13;;;6.50;99.90;;;;;;5034720;28;20040;-78
2024/02/02 01:51:18;;;;;;;24.13;5.88;;;6.50;99.90;;;;;;5035408;28;20022;-78
2024/02/02 01:53:44;;;;;;;28.85;5.60;;;6.50;99.90;;;;;;5034725;28;20913;-77
2024/02/02 01:56:10;;;;;;;29.30;5.47;;;6.50;99.90;;;;;;5017373;28;20380;-78
2024/02/02 01:58:39;;;;;;;32.70;5.95;;;6.50;99.90;;;;;;5034789;28;20014;-77
2024/02/02 02:01:04;;;;;;;22.98;5.10;;;6.50;99.90;;;;;;5017325;28;20014;-77
2024/02/02 02:03:30;;;;;;;24.23;5.80;;;6.50;99.90;;;;;;5016810;28;20025;-77
2024/02/02 02:05:56;;;;;;;23.20;6.00;;;6.50;99.90;;;;;;5034899;28;20088;-78
2024/02/02 02:08:22;;;;;;;24.83;5.65;;;6.50;99.90;;;;;;5034927;28;20053;-77
2024/02/02 02:10:48;;;;;;;27.50;6.40;;;6.50;99.90;;;;;;5034568;28;20394;-78
2024/02/02 02:13:14;;;;;;;32.38;6.25;;;6.50;99.90;;;;;;5016487;28;20032;-77
2024/02/02 02:15:39;;;;;;;24.77;5.47;;;6.60;99.90;;;;;;5034648;28;20845;-79
2024/02/02 02:18:05;;;;;;;24.50;5.53;;;6.50;99.90;;;;;;5034116;28;20040;-77
2024/02/02 02:20:34;;;;;;;27.05;6.38;;;6.60;99.90;;;;;;5034563;28;20418;-78
2024/02/02 02:23:00;;;;;;;25.63;6.22;;;6.60;99.90;;;;;;5034284;28;20023;-78
2024/02/02 02:25:26;;;;;;;25.48;6.43;;;6.60;99.90;;;;;;5034687;28;20031;-78
2024/02/02 02:27:55;;;;;;;25.45;5.22;;;6.60;99.90;;;;;;5034073;28;20116;-78
2024/02/02 02:30:21;;;;;;;25.40;6.22;;;6.60;99.90;;;;;;5034597;28;20503;-78
2024/02/02 02:32:49;;;;;;;25.67;6.75;;;6.70;99.90;;;;;;5034225;28;20032;-78
2024/02/02 02:35:15;;;;;;;23.10;6.43;;;6.60;99.90;;;;;;5034153;28;20059;-78
2024/02/02 02:37:41;;;;;;;18.35;5.45;;;6.70;99.90;;;;;;5016263;28;20022;-78
2024/02/02 02:40:10;;;;;;;23.48;6.22;;;6.60;99.90;;;;;;5034210;28;20448;-77
2024/02/02 02:42:36;;;;;;;24.75;6.32;;;6.70;99.90;;;;;;5033962;28;20522;-77
2024/02/02 02:45:05;;;;;;;23.98;6.18;;;6.60;99.90;;;;;;5033929;28;20022;-78
2024/02/02 02:47:30;;;;;;;29.27;7.00;;;6.70;99.90;;;;;;5034089;28;20017;-78
2024/02/02 02:49:56;;;;;;;23.85;6.35;;;6.70;99.90;;;;;;5034014;28;20542;-78
2024/02/02 02:52:22;;;;;;;24.17;6.40;;;6.60;99.90;;;;;;5034341;28;20029;-77
2024/02/02 02:54:48;;;;;;;19.42;6.25;;;6.60;99.90;;;;;;5032287;28;20106;-78
2024/02/02 02:57:14;;;;;;;22.05;6.00;;;6.60;99.90;;;;;;5016234;28;20029;-78
2024/02/02 02:59:39;;;;;;;25.85;7.25;;;6.60;99.90;;;;;;5033757;28;20021;-78
2024/02/02 03:02:05;;;;;;;32.95;8.63;;;6.60;99.90;;;;;;5033966;28;20029;-78
2024/02/02 03:04:31;;;;;;;26.23;7.20;;;6.60;99.90;;;;;;5033719;28;20060;-78
2024/02/02 03:06:56;;;;;;;18.23;7.47;;;6.60;99.90;;;;;;5015852;28;20014;-78
2024/02/02 03:09:22;;;;;;;31.30;7.72;;;6.60;99.90;;;;;;5001931;28;20056;-78
2024/02/02 03:11:48;;;;;;;23.75;7.93;;;6.60;99.90;;;;;;5034053;28;20056;-78
2024/02/02 03:14:14;;;;;;;31.42;9.10;;;6.60;99.90;;;;;;5033626;28;20032;-78
2024/02/02 03:16:39;;;;;;;35.40;8.68;;;6.50;99.90;;;;;;5015572;28;20029;-78
2024/02/02 03:19:05;;;;;;;21.65;7.72;;;6.50;99.90;;;;;;5032472;28;20057;-78
2024/02/02 03:21:34;;;;;;;29.23;8.90;;;6.50;99.90;;;;;;5033638;28;20045;-78
2024/02/02 03:24:00;;;;;;;22.00;8.27;;;6.50;99.90;;;;;;5015302;28;20112;-78
2024/02/02 03:26:29;;;;;;;21.17;7.72;;;6.40;99.90;;;;;;5033587;28;20478;-78
2024/02/02 03:28:55;;;;;;;25.10;8.65;;;6.40;99.90;;;;;;5033270;28;20446;-77
2024/02/02 03:31:21;;;;;;;20.77;7.97;;;6.40;99.90;;;;;;5033253;28;20600;-78
2024/02/02 03:33:47;;;;;;;29.35;8.57;;;6.40;99.90;;;;;;5033142;28;20029;-78
2024/02/02 03:36:12;;;;;;;26.35;8.43;;;6.40;99.90;;;;;;5033307;28;20521;-78
2024/02/02 03:38:38;;;;;;;24.50;8.82;;;6.40;99.90;;;;;;5032907;28;20028;-78
2024/02/02 03:41:04;;;;;;;23.73;8.48;;;6.40;99.90;;;;;;5033153;28;20104;-78
2024/02/02 03:43:32;;;;;;;31.20;9.48;;;6.30;99.90;;;;;;5032896;28;20017;-78
2024/02/02 03:45:58;;;;;;;25.67;9.63;;;6.30;99.90;;;;;;5033190;28;20025;-78
2024/02/02 03:48:24;;;;;;;29.08;9.00;;;6.30;99.90;;;;;;5032753;28;20578;-79
2024/02/02 03:50:52;;;;;;;27.70;9.18;;;6.30;99.90;;;;;;5032879;28;20060;-77
2024/02/02 03:53:18;;;;;;;24.92;9.18;;;6.30;99.90;;;;;;5032880;28;20026;-78
2024/02/02 03:55:47;;;;;;;29.17;9.73;;;6.30;99.90;;;;;;5032787;28;20072;-78
2024/02/02 03:58:12;;;;;;;28.67;8.05;;;6.30;99.90;;;;;;5032455;28;20029;-78
2024/02/02 04:00:38;;;;;;;24.00;9.98;;;6.30;99.90;;;;;;5032520;28;20026;-78
2024/02/02 04:03:04;;;;;;;24.52;8.50;;;6.30;99.90;;;;;;5032576;28;20812;-78
2024/02/02 04:05:30;;;;;;;28.10;8.40;;;6.30;99.90;;;;;;5032316;28;20057;-78
2024/02/02 04:07:56;;;;;;;25.20;8.52;;;6.30;99.90;;;;;;5032129;28;20026;-78
2024/02/02 04:10:24;;;;;;;24.77;9.05;;;6.30;99.90;;;;;;5032466;28;20525;-77
2024/02/02 04:12:50;;;;;;;24.48;8.23;;;6.30;99.90;;;;;;5032247;28;20032;-78
2024/02/02 04:15:15;;;;;;;30.83;9.18;;;6.30;99.90;;;;;;5032274;28;20025;-78
2024/02/02 04:17:41;;;;;;;29.67;9.10;;;6.30;99.90;;;;;;5031836;28;20052;-78
2024/02/02 04:20:07;;;;;;;22.05;7.55;;;6.30;99.90;;;;;;5014426;28;20036;-76
2024/02/02 04:22:33;;;;;;;23.77;8.10;;;6.30;99.90;;;;;;5032361;28;20021;-78
2024/02/02 04:24:59;;;;;;;27.02;8.85;;;6.30;99.90;;;;;;5032247;28;20606;-78
2024/02/02 04:27:27;;;;;;;26.65;7.93;;;6.30;99.90;;;;;;5032320;28;20109;-77
2024/02/02 04:29:53;;;;;;;28.30;8.77;;;6.30;99.90;;;;;;5032020;28;20052;-77
2024/02/02 04:32:19;;;;;;;24.63;8.23;;;6.30;99.90;;;;;;5032135;28;20029;-77
2024/02/02 04:34:45;;;;;;;23.25;7.57;;;6.30;99.90;;;;;;5037521;28;20033;-77
2024/02/02 04:37:10;;;;;;;21.45;8.15;;;6.40;99.90;;;;;;5014657;28;20501;-77
2024/02/02 04:39:36;;;;;;;20.15;6.65;;;6.40;99.90;;;;;;5014290;28;20842;-77
2024/02/02 04:42:05;;;;;;;26.33;7.10;;;6.30;99.90;;;;;;5032319;28;20479;-77
2024/02/02 04:44:30;;;;;;;24.52;7.45;;;6.40;99.90;;;;;;5031812;28;20030;-77
2024/02/02 04:46:57;;;;;;;27.73;7.88;;;6.40;99.90;;;;;;5031854;28;20043;-77
2024/02/02 04:49:25;;;;;;;31.50;7.18;;;6.40;99.90;;;;;;5031735;28;20112;-77
2024/02/02 04:51:51;;;;;;;33.83;8.75;;;6.40;99.90;;;;;;5031727;28;20025;-77
2024/02/02 04:54:20;;;;;;;20.63;7.53;;;6.40;99.90;;;;;;5031458;28;20029;-78
2024/02/02 04:56:45;;;;;;;22.45;7.38;;;6.40;99.90;;;;;;5013849;28;20029;-78
2024/02/02 04:59:11;;;;;;;28.77;7.68;;;6.40;99.90;;;;;;5031455;28;20108;-78
2024/02/02 05:01:40;;;;;;;23.48;7.85;;;6.40;99.90;;;;;;5031489;28;20067;-78
2024/02/02 05:04:06;;;;;;;30.25;7.70;;;6.40;99.90;;;;;;5031655;28;20430;-78
2024/02/02 05:06:35;;;;;;;25.05;7.30;;;6.40;99.90;;;;;;5031678;28;20057;-77
2024/02/02 05:09:01;;;;;;;26.17;8.23;;;6.40;99.90;;;;;;5031445;28;20073;-78
2024/02/02 05:11:26;;;;;;;23.67;7.53;;;6.40;99.90;;;;;;5031595;28;20057;-79
2024/02/02 05:13:55;;;;;;;20.13;6.75;;;6.40;99.90;;;;;;5013299;28;20056;-78
2024/02/02 05:16:21;;;;;;;22.88;6.30;;;6.40;99.90;;;;;;5031559;28;20025;-78
2024/02/02 05:18:47;;;;;;;23.08;7.47;;;6.40;99.90;;;;;;5012311;28;20049;-78
2024/02/02 05:21:13;;;;;;;28.40;7.70;;;6.30;99.90;;;;;;5031664;28;20487;-78
2024/02/02 05:23:38;;;;;;;17.67;6.68;;;6.40;99.90;;;;;;5013414;28;20025;-78
2024/02/02 05:26:04;;;;;;;24.38;6.70;;;6.40;99.90;;;;;;5031349;28;20533;-78
2024/02/02 05:28:33;;;;;;;32.50;7.60;;;6.40;99.90;;;;;;5031200;28;20030;-78
2024/02/02 05:30:59;;;;;;;20.33;5.88;;;6.30;99.90;;;;;;5031269;28;20028;-78
2024/02/02 05:33:28;;;;;;;22.50;6.10;;;6.30;99.90;;;;;;5031390;28;20041;-78
2024/02/02 05:35:53;;;;;;;20.13;6.57;;;6.30;99.90;;;;;;5031244;28;20029;-78
2024/02/02 05:38:19;;;;;;;24.27;6.97;;;6.30;99.90;;;;;;5013288;28;20037;-78
2024/02/02 05:40:48;;;;;;;24.95;6.90;;;6.30;99.90;;;;;;5031290;28;20024;-78
2024/02/02 05:43:14;;;;;;;22.48;6.32;;;6.30;99.90;;;;;;5031219;28;20056;-78
2024/02/02 05:45:40;;;;;;;20.02;6.32;;;6.30;99.90;;;;;;5013224;28;20494;-78
2024/02/02 05:48:09;;;;;;;30.25;7.15;;;6.30;99.90;;;;;;5031285;28;20526;-78
2024/02/02 05:50:35;;;;;;;18.27;5.43;;;6.30;99.90;;;;;;5031196;28;20020;-78
2024/02/02 05:53:04;;;;;;;17.25;5.65;;;6.40;99.90;;;;;;5031394;28;20362;-78
2024/02/02 05:55:29;;;;;;;22.30;5.78;;;6.40;99.90;;;;;;5030834;28;20762;-78
2024/02/02 05:57:55;;;;;;;29.83;7.15;;;6.40;99.90;;;;;;5030932;28;20018;-77
2024/02/02 06:00:21;;;;;;;18.75;5.45;;;6.40;99.90;;;;;;5031290;28;20038;-77
2024/02/02 06:02:47;;;;;;;18.15;5.18;;;6.40;99.90;;;;;;5031467;28;20073;-77
2024/02/02 06:05:13;;;;;;;16.13;5.47;;;6.40;99.90;;;;;;5031129;28;20025;-77
2024/02/02 06:07:42;;;;;;;21.10;6.30;;;6.40;99.90;;;;;;5031311;28;20021;-78
2024/02/02 06:10:08;;;;;;;17.30;5.07;;;6.40;99.90;;;;;;5031124;28;20033;-77
2024/02/02 06:12:36;;;;;;;15.60;4.55;;;6.40;99.90;;;;;;5013299;28;20550;-78
2024/02/02 06:15:04;;;;;;;23.58;5.25;;;6.40;99.90;;;;;;5030857;28;20093;-77
2024/02/02 06:17:32;;;;;;;23.95;5.63;;;6.40;99.90;;;;;;5013129;28;20022;-77
2024/02/02 06:19:58;;;;;;;19.77;5.28;;;6.40;99.90;;;;;;5030769;28;20407;-78
2024/02/02 06:22:24;;;;;;;19.73;5.70;;;6.40;99.90;;;;;;5031171;28;20028;-78
2024/02/02 06:24:50;;;;;;;18.45;5.43;;;6.40;99.90;;;;;;5030735;28;20017;-77
2024/02/02 06:27:16;;;;;;;23.77;5.63;;;6.40;99.90;;;;;;5031058;28;20025;-76
2024/02/02 06:29:43;;;;;;;16.27;4.75;;;6.40;99.90;;;;;;5032634;28;20025;-77
2024/02/02 06:32:08;;;;;;;26.40;6.13;;;6.40;99.90;;;;;;5017111;28;20028;-77
2024/02/02 06:34:34;;;;;;;20.40;4.95;;;6.40;99.90;;;;;;5034754;28;20017;-77
2024/02/02 06:37:00;;;;;;;18.85;5.13;;;6.50;99.90;;;;;;5035158;28;20053;-77
2024/02/02 06:39:25;;;;;;;17.33;4.47;;;6.50;99.90;;;;;;5016807;28;20128;-78
2024/02/02 06:41:51;;;;;;;16.80;5.35;;;6.50;99.90;;;;;;5034880;28;20022;-77
2024/02/02 06:44:20;;;;;;;20.17;5.75;;;6.50;99.90;;;;;;5016761;28;20033;-77
2024/02/02 06:46:49;;;;;;;18.73;5.18;;;6.50;99.90;;;;;;5034008;28;20033;-77
2024/02/02 06:49:14;;;;;;;18.40;4.72;;;6.50;99.90;;;;;;5034209;28;20035;-77
2024/02/02 06:51:40;;;;;;;17.85;5.22;;;6.50;99.90;;;;;;5034046;28;20041;-77
2024/02/02 06:54:09;;;;;;;16.30;4.93;;;6.50;99.90;;;;;;5033469;28;20148;-77
2024/02/02 06:56:41;;;;;;;22.67;5.00;;;6.50;99.90;;;;;;5033535;28;20403;-78
2024/02/02 06:59:09;;;;;;;20.92;6.38;;;6.50;99.90;;;;;;5033279;28;20018;-77
2024/02/02 07:01:36;;;;;;;18.23;5.05;;;6.50;99.90;;;;;;5021574;28;20029;-77
2024/02/02 07:04:06;;;;;;;20.23;4.95;;;6.50;99.90;;;;;;5011863;28;20032;-77
2024/02/02 07:06:32;;;;;;;15.73;4.90;;;6.50;99.90;;;;;;5033735;28;20052;-77
2024/02/02 07:09:22;;;;;;;25.27;4.90;;;6.50;99.90;;;;;;5033186;28;20021;-77
2024/02/02 07:11:58;;;;;;;24.95;5.22;;;6.50;99.90;;;;;;5033520;28;20082;-77
2024/02/02 07:14:43;;;;;;;25.95;5.95;;;6.50;99.90;;;;;;5033405;28;20057;-78
2024/02/02 07:17:36;;;;;;;24.15;5.03;;;6.50;99.90;;;;;;5035004;28;20029;-77
2024/02/02 07:20:09;;;;;;;27.63;6.60;;;6.50;99.90;;;;;;5027706;28;20111;-77
2024/02/02 07:22:39;;;;;;;25.52;5.70;;;6.50;99.90;;;;;;5013936;28;20030;-77
2024/02/02 07:25:18;;;;;;;23.13;6.20;;;6.50;99.90;;;;;;5032544;28;20056;-78
2024/02/02 07:28:37;;;;;;;23.88;5.90;;;6.50;99.90;;;;;;5013828;28;20021;-77
2024/02/02 07:31:07;;;;;;;20.52;5.30;;;6.50;99.90;;;;;;4993989;28;20056;-78
2024/02/02 07:33:43;;;;;;;25.35;5.72;;;6.50;99.90;;;;;;5029194;28;20491;-78
2024/02/02 07:36:31;;;;;;;32.55;6.63;;;6.60;99.90;;;;;;5029586;28;20587;-78
2024/02/02 07:38:56;;;;;;;24.67;6.50;;;6.60;99.90;;;;;;5014481;28;20091;-80
2024/02/02 07:41:27;;;;;;;25.38;6.15;;;6.60;99.90;;;;;;5032578;28;20017;-78
2024/02/02 07:43:59;;;;;;;21.57;6.47;;;6.60;99.90;;;;;;5032213;28;20533;-80
2024/02/02 07:46:25;;;;;;;22.95;6.22;;;6.60;99.90;;;;;;5033194;28;20314;-78
2024/02/02 07:48:52;;;;;;;25.98;6.63;;;6.70;99.90;;;;;;5015383;28;20045;-79
2024/02/02 07:51:18;;;;;;;22.85;6.20;;;6.70;99.90;;;;;;5032676;28;20026;-77
2024/02/02 07:53:47;;;;;;;25.42;6.82;;;6.70;99.90;;;;;;5032883;28;20025;-77
2024/02/02 07:56:13;;;;;;;26.48;7.28;;;6.70;99.90;;;;;;5033518;28;20018;-78
2024/02/02 07:58:40;;;;;;;22.55;6.65;;;6.70;99.90;;;;;;5014016;28;20037;-77
2024/02/02 08:01:09;;;;;;;27.20;8.75;;;6.80;99.90;;;;;;5033067;28;20495;-78
2024/02/02 08:03:38;;;;;;;29.08;7.35;;;6.80;99.90;;;;;;5032551;28;20018;-77
2024/02/02 08:06:05;;;;;;;21.33;7.28;;;6.80;99.90;;;;;;5032909;28;20117;-78
2024/02/02 08:08:32;;;;;;;25.17;8.43;;;6.80;99.90;;;;;;5032366;28;20498;-78
2024/02/02 08:10:59;;;;;;;23.08;8.35;;;6.90;99.90;;;;;;5031949;28;20056;-77
2024/02/02 08:13:26;;;;;;;26.90;10.57;;;6.90;99.90;;;;;;5032681;28;20029;-76
2024/02/02 08:15:52;;;;;;;34.22;9.93;;;6.90;99.90;;;;;;5010773;28;20030;-79
2024/02/02 08:18:18;;;;;;;36.15;9.85;;;6.90;99.90;;;;;;5038215;28;20041;-77
2024/02/02 08:20:46;;;;;;;29.60;9.55;;;7.00;99.90;;;;;;5017080;28;20027;-76
2024/02/02 08:23:11;;;;;;;30.98;9.93;;;7.00;99.90;;;;;;5032274;28;20021;-77
2024/02/02 08:25:37;;;;;;;32.67;11.00;;;7.00;99.90;;;;;;5024986;28;20791;-78
2024/02/02 08:28:06;;;;;;;32.08;10.52;;;7.00;99.90;;;;;;5031758;28;20045;-77
2024/02/02 08:30:32;;;;;;;34.03;10.90;;;7.00;99.90;;;;;;5019081;28;20042;-77
2024/02/02 08:32:58;;;;;;;28.23;8.60;;;7.10;99.90;;;;;;5023620;28;20056;-78
2024/02/02 08:35:28;;;;;;;23.92;9.13;;;7.10;99.90;;;;;;5037578;28;20029;-77
2024/02/02 08:37:58;;;;;;;33.03;9.98;;;7.10;99.90;;;;;;5028268;28;20475;-78
2024/02/02 08:40:43;;;;;;;27.83;9.65;;;7.10;99.90;;;;;;5029252;28;20076;-78
2024/02/02 08:43:11;;;;;;;25.67;8.75;;;7.20;99.90;;;;;;5030286;28;20099;-78
2024/02/02 08:45:43;;;;;;;27.10;9.25;;;7.20;99.90;;;;;;5001985;28;20552;-77
2024/02/02 08:48:26;;;;;;;26.98;8.52;;;7.20;99.90;;;;;;5014211;28;20049;-78
2024/02/02 08:50:55;;;;;;;26.60;8.40;;;7.20;99.90;;;;;;5030484;28;20557;-78
2024/02/02 08:53:24;;;;;;;23.05;9.10;;;7.20;99.90;;;;;;5031284;28;20037;-78
2024/02/02 08:55:50;;;;;;;29.63;9.45;;;7.30;99.90;;;;;;5012579;28;20079;-78
2024/02/02 08:58:34;;;;;;;25.05;8.60;;;7.30;99.90;;;;;;5013513;28;20450;-78
2024/02/02 09:01:02;;;;;;;26.92;8.65;;;7.30;99.90;;;;;;5021005;28;20026;-78
2024/02/02 09:03:45;;;;;;;28.35;8.63;;;7.40;99.90;;;;;;5032423;28;20052;-78
2024/02/02 09:06:26;;;;;;;21.30;8.10;;;7.40;99.90;;;;;;5035937;28;20036;-78
2024/02/02 09:08:51;;;;;;;27.75;9.25;;;7.40;99.90;;;;;;5013178;28;20029;-77
2024/02/02 09:11:18;;;;;;;23.52;8.32;;;7.40;99.90;;;;;;5031493;28;20384;-78
2024/02/02 09:13:45;;;;;;;31.60;9.60;;;7.40;99.90;;;;;;5034396;28;20517;-76
2024/02/02 09:16:18;;;;;;;25.63;9.60;;;7.50;99.90;;;;;;5021448;28;20801;-77
2024/02/02 09:18:56;;;;;;;33.22;10.20;;;7.50;99.90;;;;;;5028147;28;20105;-78
2024/02/02 09:21:32;;;;;;;31.88;8.48;;;7.50;99.90;;;;;;4997603;28;20034;-76
2024/02/02 09:23:58;;;;;;;27.98;8.93;;;7.50;99.90;;;;;;5018505;28;20036;-79
2024/02/02 09:26:40;;;;;;;32.17;9.13;;;7.60;99.90;;;;;;5021037;28;20041;-79
2024/02/02 09:29:09;;;;;;;26.58;10.35;;;7.60;99.90;;;;;;5007486;28;20041;-78
2024/02/02 09:31:37;;;;;;;26.35;9.63;;;7.60;99.90;;;;;;5026503;28;20025;-78
2024/02/02 09:34:09;;;;;;;28.40;9.27;;;7.60;99.90;;;;;;5021447;28;20136;-78
2024/02/02 09:36:35;;;;;;;23.27;10.07;;;7.70;99.90;;;;;;5008950;28;20030;-76
2024/02/02 09:39:07;;;;;;;30.10;10.43;;;7.70;99.90;;;;;;5026249;28;20060;-78
2024/02/02 09:41:36;;;;;;;33.17;11.38;;;7.70;99.90;;;;;;5010817;28;20084;-78
2024/02/02 09:44:20;;;;;;;27.52;10.95;;;7.70;99.90;;;;;;5029657;28;20036;-78
2024/02/02 09:46:51;;;;;;;36.33;12.43;;;7.70;99.90;;;;;;5009541;28;20052;-77
2024/02/02 09:49:48;;;;;;;30.55;11.32;;;7.70;99.90;;;;;;5030230;28;20081;-77
2024/02/02 09:52:47;;;;;;;32.15;10.75;;;7.80;99.90;;;;;;5028920;28;20060;-77
2024/02/02 09:55:27;;;;;;;26.35;11.23;;;7.80;99.90;;;;;;5030064;28;20048;-77
2024/02/02 09:58:14;;;;;;;36.20;11.80;;;7.80;99.90;;;;;;5033794;28;20391;-77
2024/02/02 10:00:45;;;;;;;29.83;11.57;;;7.80;99.90;;;;;;5028793;28;20524;-78
2024/02/02 10:03:20;;;;;;;;;;;7.80;99.90;;;;;;5011528;28;20120;-79
2024/02/02 10:06:03;;;;;;;29.50;11.93;;;7.80;99.90;;;;;;5031985;28;19913;-77
2024/02/02 10:08:47;;;;;;;35.03;12.13;;;7.90;99.90;;;;;;5033073;28;20033;-80
2024/02/02 10:11:39;;;;;;;44.28;13.23;;;7.90;99.90;;;;;;5015444;28;20040;-79
2024/02/02 10:14:42;;;;;;;37.17;12.63;;;7.90;99.90;;;;;;5029360;28;20087;-77
2024/02/02 10:17:30;;;;;;;32.33;12.30;;;8.00;99.90;;;;;;5033501;28;20033;-76
2024/02/02 10:20:15;;;;;;;34.00;14.00;;;8.00;99.90;;;;;;5023936;28;20053;-76
2024/02/02 10:22:58;;;;;;;30.08;12.88;;;8.00;99.90;;;;;;5015865;28;20010;-76
2024/02/02 10:25:47;;;;;;;33.40;13.20;;;8.00;99.90;;;;;;5015342;28;20044;-79
2024/02/02 10:28:12;;;;;;;32.00;12.57;;;8.00;99.90;;;;;;5015886;28;20032;-77
2024/02/02 10:31:09;;;;;;;34.95;12.15;;;8.00;99.90;;;;;;5026670;28;20033;-78
2024/02/02 10:33:52;;;;;;;33.92;11.82;;;8.10;99.90;;;;;;5031542;28;20504;-80
2024/02/02 10:36:51;;;;;;;30.90;12.02;;;8.10;99.90;;;;;;5015374;28;20037;-78
2024/02/02 10:39:43;;;;;;;38.92;11.98;;;8.10;99.90;;;;;;5033725;28;20083;-78
2024/02/02 10:42:23;;;;;;;31.55;12.05;;;8.20;99.90;;;;;;5033244;28;20026;-78
2024/02/02 10:45:13;;;;;;;26.83;11.88;;;8.20;99.90;;;;;;5045859;28;20090;-78
2024/02/02 10:48:03;;;;;;;28.60;12.45;;;8.20;99.90;;;;;;5028977;28;20025;-78
2024/02/02 10:50:41;;;;;;;32.72;12.93;;;8.20;99.90;;;;;;5031684;28;20037;-78
2024/02/02 10:53:28;;;;;;;39.70;12.38;;;8.30;99.90;;;;;;5034474;28;20018;-78
2024/02/02 10:55:56;;;;;;;33.70;13.43;;;8.30;99.90;;;;;;5029524;28;20026;-79
2024/02/02 10:58:31;;;;;;;31.58;11.75;;;8.30;99.90;;;;;;5033628;28;20032;-78
2024/02/02 11:01:18;;;;;;;37.97;12.88;;;8.30;99.90;;;;;;5033456;28;20022;-78
2024/02/02 11:04:02;;;;;;;30.70;13.57;;;8.40;99.90;;;;;;5033110;28;20025;-78
2024/02/02 11:06:58;;;;;;;32.03;12.00;;;8.40;99.90;;;;;;5029894;28;20112;-78
2024/02/02 11:09:53;;;;;;;33.17;13.20;;;8.40;99.90;;;;;;5022946;28;20025;-78
2024/02/02 11:13:03;;;;;;;37.00;13.98;;;8.40;99.90;;;;;;5030437;28;20029;-77
2024/02/02 11:15:51;;;;;;;38.05;14.30;;;8.50;99.90;;;;;;5031477;28;20045;-77
2024/02/02 11:18:32;;;;;;;35.80;13.80;;;8.50;99.90;;;;;;5031949;28;20083;-76
2024/02/02 11:21:38;;;;;;;34.83;13.43;;;8.50;99.90;;;;;;5030197;28;20434;-78
2024/02/02 11:24:27;;;;;;;32.20;14.18;;;8.50;99.90;;;;;;5027916;28;20038;-77
2024/02/02 11:27:15;;;;;;;38.42;13.40;;;8.50;99.90;;;;;;5016404;28;20538;-77
2024/02/02 11:30:01;;;;;;;31.77;13.38;;;8.50;99.90;;;;;;5021808;28;20026;-78
2024/02/02 11:32:57;;;;;;;33.47;14.60;;;8.60;99.90;;;;;;5028928;28;20040;-78
2024/02/02 11:35:40;;;;;;;32.83;14.60;;;8.60;99.90;;;;;;5028654;28;20041;-79
2024/02/02 11:38:48;;;;;;;36.90;14.55;;;8.60;99.90;;;;;;5014468;28;20024;-78
2024/02/02 11:41:20;;;;;;;30.00;13.90;;;8.60;99.90;;;;;;5029207;28;20033;-80
2024/02/02 11:43:47;;;;;;;36.05;13.15;;;8.70;99.90;;;;;;5031692;28;20014;-79
2024/02/02 11:46:16;;;;;;;32.42;13.90;;;8.70;99.90;;;;;;5031825;28;20056;-79
2024/02/02 11:48:44;;;;;;;31.02;13.50;;;8.70;99.90;;;;;;5032734;28;20033;-79
2024/02/02 11:51:10;;;;;;;32.55;13.18;;;8.80;99.90;;;;;;5032288;28;20037;-79
2024/02/02 11:54:11;;;;;;;32.33;14.15;;;8.80;99.90;;;;;;5033064;28;20114;-78
2024/02/02 11:56:41;;;;;;;26.95;13.15;;;8.80;99.90;;;;;;5025445;28;20064;-79
2024/02/02 11:59:23;;;;;;;33.35;13.35;;;8.80;99.90;;;;;;5032196;28;20495;-78
2024/02/02 12:02:27;;;;;;;32.50;14.23;;;8.80;99.90;;;;;;5032035;28;20085;-83
2024/02/02 12:04:55;;;;;;;32.17;12.32;;;8.80;99.90;;;;;;4998028;28;20033;-78
2024/02/02 12:07:29;;;;;;;25.88;11.98;;;8.80;99.90;;;;;;5029561;28;20013;-79
2024/02/02 12:10:02;;;;;;;30.15;13.02;;;8.90;99.90;;;;;;5013356;28;20021;-77
2024/02/02 12:12:28;;;;;;;26.80;12.55;;;8.90;99.90;;;;;;5034775;28;20093;-77
2024/02/02 12:14:57;;;;;;;31.50;14.15;;;8.90;99.90;;;;;;5031507;28;20457;-78
2024/02/02 12:17:23;;;;;;;27.25;12.48;;;8.90;99.90;;;;;;5031957;28;20052;-78
2024/02/02 12:19:50;;;;;;;31.05;12.85;;;8.90;99.90;;;;;;5009939;28;20527;-79
2024/02/02 12:22:16;;;;;;;32.63;12.63;;;8.90;99.90;;;;;;5012570;28;20022;-77
2024/02/02 12:24:42;;;;;;;29.58;12.95;;;8.90;99.90;;;;;;5012674;28;20033;-78
2024/02/02 12:27:08;;;;;;;31.73;13.27;;;8.90;99.90;;;;;;5014189;28;20033;-77
2024/02/02 12:29:37;;;;;;;31.40;13.82;;;8.90;99.90;;;;;;5009998;28;20018;-78
2024/02/02 12:32:08;;;;;;;32.53;11.85;;;8.90;99.90;;;;;;5010906;28;20029;-77
2024/02/02 12:34:35;;;;;;;28.13;12.48;;;8.90;99.90;;;;;;5017395;28;20030;-77
2024/02/02 12:37:01;;;;;;;34.17;13.77;;;9.00;99.90;;;;;;5010722;28;20026;-78
2024/02/02 12:39:31;;;;;;;30.00;14.60;;;9.00;99.90;;;;;;5010428;28;20129;-77
2024/02/02 12:42:02;;;;;;;34.78;14.07;;;9.00;99.90;;;;;;5015694;28;20022;-77
2024/02/02 12:44:28;;;;;;;34.05;13.65;;;9.00;99.90;;;;;;5009204;28;20025;-77
2024/02/02 12:46:54;;;;;;;30.13;14.43;;;9.00;99.90;;;;;;5010384;28;20014;-77
2024/02/02 12:49:21;;;;;;;31.58;15.43;;;9.00;99.90;;;;;;5011431;28;20045;-77
2024/02/02 12:51:47;;;;;;;32.20;15.23;;;9.00;99.90;;;;;;5011344;28;20113;-77
2024/02/02 12:54:13;;;;;;;44.53;17.45;;;9.00;99.90;;;;;;5012357;28;20048;-77
2024/02/02 12:56:39;;;;;;;40.65;18.27;;;9.00;99.90;;;;;;5013447;28;20029;-78
2024/02/02 12:59:25;;;;;;;33.60;15.05;;;9.00;99.90;;;;;;5021660;28;20026;-77
2024/02/02 13:01:50;;;;;;;36.78;15.20;;;9.00;99.90;;;;;;5010794;28;20034;-77
2024/02/02 13:04:17;;;;;;;37.63;16.48;;;9.10;99.90;;;;;;5008816;28;20447;-77